Time;durP1;ratioP1;P1;durP2;ratioP2;P2;SDS_P1;SDS_P2;PMS_P1;PMS_P2;Temp;Humidity;BMP_temperature;BMP_pressure;BME280_temperature;BME280_humidity;BME280_pressure;Samples;Min_cycle;Max_cycle;Signal;HPM_P1;HPM_P2
2022/05/18 00:01:37;;;;;;;7.57;7.03;;;;;;;14.66;90.19;101862.63;6113705;23;20009;-80
2022/05/18 00:04:04;;;;;;;7.10;6.50;;;;;;;14.64;89.27;101862.66;6112304;23;20005;-79
2022/05/18 00:06:30;;;;;;;5.65;5.35;;;;;;;14.55;87.32;101854.84;6112761;23;20545;-79
2022/05/18 00:08:55;;;;;;;5.10;4.80;;;;;;;14.51;85.74;101861.03;6112554;23;20005;-78
2022/05/18 00:11:21;;;;;;;4.63;4.28;;;;;;;14.47;85.60;101862.84;6111635;23;20006;-78
2022/05/18 00:13:48;;;;;;;4.32;4.00;;;;;;;14.42;85.86;101862.03;6112745;23;20005;-78
2022/05/18 00:16:15;;;;;;;3.85;3.60;;;;;;;14.35;84.44;101853.34;6113212;23;20417;-79
2022/05/18 00:18:40;;;;;;;5.43;3.45;;;;;;;14.32;84.23;101853.41;6113512;23;20465;-79
2022/05/18 00:21:06;;;;;;;3.70;3.40;;;;;;;14.27;83.12;101860.47;6113213;23;20057;-78
2022/05/18 00:23:33;;;;;;;3.08;2.70;;;;;;;14.23;81.01;101863.16;6112434;23;20009;-80
2022/05/18 00:25:59;;;;;;;3.38;2.55;;;;;;;14.17;80.09;101853.59;6111304;23;20014;-77
2022/05/18 00:28:24;;;;;;;2.42;2.33;;;;;;;14.15;79.48;101855.38;6136947;23;20336;-78
2022/05/18 00:30:50;;;;;;;1.65;1.55;;;;;;;14.12;78.24;101851.03;6113524;23;20008;-79
2022/05/18 00:33:15;;;;;;;4.72;1.80;;;;;;;14.01;77.58;101853.78;6111893;23;20069;-78
2022/05/18 00:35:41;;;;;;;2.08;1.95;;;;;;;13.95;78.47;101853.88;6137397;23;20058;-78
2022/05/18 00:38:07;;;;;;;1.83;1.73;;;;;;;13.89;76.12;101859.19;6112790;23;20009;-79
2022/05/18 00:40:34;;;;;;;4.60;1.75;;;;;;;13.86;75.76;101861.84;6111569;23;20036;-80
2022/05/18 00:43:00;;;;;;;1.98;1.45;;;;;;;13.84;76.08;101866.28;6111521;23;20036;-79
2022/05/18 00:45:26;;;;;;;2.42;1.45;;;;;;;13.79;75.28;101865.44;6112000;23;20013;-80
2022/05/18 00:47:51;;;;;;;1.55;1.45;;;;;;;13.77;75.91;101859.31;6114304;23;20437;-78
2022/05/18 00:50:20;;;;;;;2.08;1.10;;;;;;;13.79;76.47;101857.56;6112629;23;19997;-79
2022/05/18 00:53:05;;;;;;;1.92;1.17;;;;;;;13.66;73.85;101860.31;6136779;23;20121;-79
2022/05/18 00:55:34;;;;;;;4.35;1.80;;;;;;;13.62;72.79;101870.84;6112485;23;20005;-78
2022/05/18 00:58:02;;;;;;;2.38;1.30;;;;;;;13.50;71.70;101870.09;6112838;23;20033;-79
2022/05/18 01:00:28;;;;;;;5.00;1.15;;;;;;;13.50;73.17;101866.63;6137634;23;20025;-79
2022/05/18 01:03:00;;;;;;;1.20;1.10;;;;;;;13.49;72.41;101875.38;6133991;23;20005;-77
2022/05/18 01:05:30;;;;;;;1.10;1.00;;;;;;;13.42;71.93;101871.06;6109742;23;20005;-77
2022/05/18 01:07:58;;;;;;;1.25;0.90;;;;;;;13.38;70.74;101878.09;6109590;23;20334;-78
2022/05/18 01:10:25;;;;;;;0.88;0.82;;;;;;;13.39;72.42;101881.56;6110031;23;20029;-77
2022/05/18 01:12:50;;;;;;;1.45;1.23;;;;;;;13.31;73.82;101882.50;6134129;23;20001;-78
2022/05/18 01:15:18;;;;;;;4.15;0.80;;;;;;;13.28;72.95;101877.28;6109708;23;20442;-77
2022/05/18 01:17:45;;;;;;;2.08;1.05;;;;;;;13.27;71.87;101875.53;6108904;23;20460;-77
2022/05/18 01:20:14;;;;;;;1.00;1.00;;;;;;;13.26;72.59;101872.91;6108989;23;20006;-78
2022/05/18 01:23:13;;;;;;;1.27;1.05;;;;;;;13.21;71.17;101880.84;6112913;23;20085;-79
2022/05/18 01:26:03;;;;;;;2.10;0.90;;;;;;;13.19;72.34;101870.34;6088222;23;20017;-78
2022/05/18 01:28:33;;;;;;;6.13;0.90;;;;;;;13.09;71.15;101873.03;6136323;23;20150;-78
2022/05/18 01:30:59;;;;;;;1.13;0.88;;;;;;;13.05;71.82;101868.69;6111710;23;20017;-78
2022/05/18 01:33:25;;;;;;;1.10;1.00;;;;;;;13.05;71.39;101868.69;6112155;23;20005;-80
2022/05/18 01:35:51;;;;;;;1.95;1.10;;;;;;;12.98;72.67;101868.78;6113514;23;20010;-80
2022/05/18 01:38:17;;;;;;;3.00;1.08;;;;;;;12.97;72.53;101863.53;6113146;23;20341;-80
2022/05/18 01:40:55;;;;;;;1.10;0.68;;;;;;;12.88;72.75;101867.06;6112896;23;20438;-80
2022/05/18 01:43:43;;;;;;;1.73;1.08;;;;;;;12.89;72.18;101866.22;6137659;23;20013;-79
2022/05/18 01:46:12;;;;;;;3.15;1.00;;;;;;;12.91;72.28;101866.19;6137361;23;20096;-79
2022/05/18 01:48:42;;;;;;;1.13;0.73;;;;;;;12.90;70.41;101870.56;6113064;23;20005;-79
2022/05/18 01:51:08;;;;;;;1.83;1.10;;;;;;;12.94;70.11;101876.66;6115268;23;20002;-81
2022/05/18 01:53:34;;;;;;;3.22;1.02;;;;;;;12.99;71.81;101870.50;6114598;23;20064;-80
2022/05/18 01:56:01;;;;;;;0.77;0.77;;;;;;;12.94;70.53;101876.66;6114375;23;20032;-80
2022/05/18 01:58:26;;;;;;;0.90;0.90;;;;;;;12.95;69.74;101870.53;6114970;23;20333;-80
2022/05/18 02:00:53;;;;;;;1.20;0.90;;;;;;;12.92;71.29;101870.56;6115214;23;20010;-79
2022/05/18 02:03:20;;;;;;;1.35;0.80;;;;;;;12.86;70.60;101871.47;6112939;23;20016;-79
2022/05/18 02:05:46;;;;;;;0.73;0.73;;;;;;;12.86;72.00;101863.63;6111692;23;20065;-79
2022/05/18 02:08:15;;;;;;;5.20;0.90;;;;;;;12.82;71.20;101872.38;6112563;23;20005;-79
2022/05/18 02:10:41;;;;;;;2.38;1.17;;;;;;;12.76;71.38;101868.06;6113004;23;19998;-80
2022/05/18 02:13:07;;;;;;;1.73;0.85;;;;;;;12.78;71.50;101865.41;6112024;23;20013;-79
2022/05/18 02:15:34;;;;;;;1.40;0.80;;;;;;;12.71;72.79;101861.97;6113474;23;20038;-80
2022/05/18 02:17:59;;;;;;;1.00;0.80;;;;;;;12.68;70.70;101854.13;6113246;23;20016;-80
2022/05/18 02:20:25;;;;;;;1.33;1.02;;;;;;;12.71;70.53;101859.34;6111961;23;20040;-79
2022/05/18 02:22:51;;;;;;;1.00;0.77;;;;;;;12.70;70.97;101862.84;6111067;23;20438;-80
2022/05/18 02:25:17;;;;;;;2.38;0.90;;;;;;;12.71;71.72;101853.22;6111718;23;20336;-80
2022/05/18 02:27:43;;;;;;;1.95;0.70;;;;;;;12.65;72.53;101856.75;6111345;23;20085;-79
2022/05/18 02:30:09;;;;;;;1.25;1.10;;;;;;;12.55;72.81;101848.06;6136011;23;20009;-80
2022/05/18 02:32:34;;;;;;;4.13;0.80;;;;;;;12.52;71.99;101853.34;6111646;23;20016;-80
2022/05/18 02:35:00;;;;;;;1.88;1.00;;;;;;;12.54;72.31;101851.56;6111850;23;20012;-79
2022/05/18 02:37:26;;;;;;;1.33;0.90;;;;;;;12.57;72.21;101856.81;6135708;23;20013;-79
2022/05/18 02:39:52;;;;;;;2.08;0.95;;;;;;;12.48;71.66;101857.72;6112323;23;20018;-80
2022/05/18 02:42:17;;;;;;;1.20;0.95;;;;;;;12.45;72.03;101862.13;6111993;23;20001;-78
2022/05/18 02:44:43;;;;;;;2.50;0.93;;;;;;;12.46;72.25;101861.22;6112046;23;20310;-79
2022/05/18 02:47:08;;;;;;;1.20;1.10;;;;;;;12.46;72.93;101853.38;6135731;23;20006;-79
2022/05/18 02:49:33;;;;;;;1.42;1.10;;;;;;;12.44;71.98;101858.63;6112707;23;20029;-79
2022/05/18 02:51:59;;;;;;;3.60;1.10;;;;;;;12.48;72.62;101864.72;6111101;23;20363;-79
2022/05/18 02:57:09;;;;;;;0.98;0.90;;;;;;;12.39;71.25;101862.16;6140298;23;20017;-79
2022/05/18 02:59:35;;;;;;;1.23;1.10;;;;;;;12.41;72.36;101860.41;6112167;23;20345;-80
2022/05/18 03:02:01;;;;;;;1.83;1.08;;;;;;;12.39;72.64;101860.38;6111856;23;20029;-79
2022/05/18 03:04:29;;;;;;;2.20;1.05;;;;;;;12.39;71.30;101867.38;6112113;23;20002;-79
2022/05/18 03:06:55;;;;;;;0.77;0.77;;;;;;;12.37;72.14;101861.31;6112352;23;20005;-79
2022/05/18 03:09:21;;;;;;;1.38;0.70;;;;;;;12.37;71.90;101874.41;6111646;23;20009;-79
2022/05/18 03:11:46;;;;;;;2.05;0.85;;;;;;;12.37;72.13;101871.78;6112126;23;20334;-80
2022/05/18 03:14:12;;;;;;;1.10;1.00;;;;;;;12.32;72.60;101874.41;6111812;23;20017;-80
2022/05/18 03:16:38;;;;;;;3.03;1.42;;;;;;;12.32;71.56;101877.91;6112213;23;20381;-79
2022/05/18 03:19:04;;;;;;;1.42;1.33;;;;;;;12.31;72.46;101884.03;6111858;23;20005;-80
2022/05/18 03:24:13;;;;;;;3.50;1.00;;;;;;;12.28;72.18;101886.63;6141102;23;20302;-79
2022/05/18 03:26:39;;;;;;;2.15;1.00;;;;;;;12.25;72.74;101891.91;6111553;23;20002;-80
2022/05/18 03:29:04;;;;;;;2.45;1.25;;;;;;;12.22;71.60;101886.69;6128889;23;20080;-80
2022/05/18 03:31:29;;;;;;;2.55;0.90;;;;;;;12.21;72.38;101887.53;6161501;23;20001;-80
2022/05/18 03:33:55;;;;;;;2.10;1.00;;;;;;;12.24;72.11;101884.91;6123966;23;20009;-81
2022/05/18 03:36:21;;;;;;;1.10;1.00;;;;;;;12.24;71.86;101887.53;6133214;23;20013;-80
2022/05/18 03:38:47;;;;;;;0.60;0.60;;;;;;;12.27;72.21;101889.25;6133524;23;20005;-81
2022/05/18 03:41:13;;;;;;;1.92;0.88;;;;;;;12.26;72.26;101883.16;6109528;23;20009;-80
2022/05/18 03:43:39;;;;;;;2.10;0.85;;;;;;;12.25;70.67;101885.78;6108860;23;20388;-80
2022/05/18 03:46:05;;;;;;;2.22;0.95;;;;;;;12.25;73.01;101894.50;6109339;23;20037;-81
2022/05/18 03:48:31;;;;;;;1.77;1.17;;;;;;;12.22;71.74;101881.44;6109067;23;20052;-80
2022/05/18 03:50:58;;;;;;;1.95;0.77;;;;;;;12.22;71.66;101886.69;6107898;23;20002;-80
2022/05/18 03:53:24;;;;;;;1.75;1.02;;;;;;;12.21;72.30;101890.16;6108280;23;20017;-80
2022/05/18 03:55:50;;;;;;;1.80;1.30;;;;;;;12.18;71.49;101883.19;6111082;23;20009;-80
2022/05/18 03:58:16;;;;;;;0.80;0.80;;;;;;;12.18;71.29;101884.94;6134263;23;20076;-80
2022/05/18 04:00:43;;;;;;;1.30;1.02;;;;;;;12.20;71.47;101885.78;6110457;23;20012;-79
2022/05/18 04:03:10;;;;;;;1.27;1.17;;;;;;;12.22;72.04;101886.69;6133412;23;20005;-78
2022/05/18 04:05:40;;;;;;;1.10;1.00;;;;;;;12.21;71.14;101886.69;6109328;23;20044;-79
2022/05/18 04:08:06;;;;;;;3.25;1.20;;;;;;;12.23;72.61;101890.16;6133020;23;20028;-78
2022/05/18 04:10:32;;;;;;;1.08;0.98;;;;;;;12.22;71.48;101886.69;6108578;23;20001;-78
2022/05/18 04:12:57;;;;;;;1.00;0.95;;;;;;;12.24;71.48;101891.91;6108620;23;20342;-79
2022/05/18 04:15:22;;;;;;;2.35;1.00;;;;;;;12.24;71.64;101891.91;6158346;23;20426;-78
2022/05/18 04:17:48;;;;;;;2.75;1.02;;;;;;;12.29;72.74;101887.53;6133000;23;20463;-79
2022/05/18 04:20:17;;;;;;;2.13;1.30;;;;;;;12.32;71.50;101890.13;6108405;23;20009;-79
2022/05/18 04:22:42;;;;;;;0.90;0.90;;;;;;;12.33;71.03;101889.25;6109071;23;19998;-78
2022/05/18 04:25:09;;;;;;;2.22;1.20;;;;;;;12.35;70.50;101882.25;6108483;23;20451;-78
2022/05/18 04:27:34;;;;;;;2.17;1.00;;;;;;;12.40;71.78;101887.47;6108508;23;20009;-79
2022/05/18 04:30:00;;;;;;;3.38;0.85;;;;;;;12.41;70.09;101886.59;6108866;23;20002;-78
2022/05/18 04:32:26;;;;;;;1.27;1.10;;;;;;;12.45;71.14;101885.72;6108649;23;20009;-79
2022/05/18 04:34:51;;;;;;;2.03;1.30;;;;;;;12.50;71.13;101879.56;6107388;23;20010;-76
2022/05/18 04:37:17;;;;;;;1.27;1.10;;;;;;;12.56;70.93;101883.03;6104340;23;20373;-76
2022/05/18 04:39:43;;;;;;;4.25;1.20;;;;;;;12.57;70.90;101875.16;6104920;23;20083;-76
2022/05/18 04:42:09;;;;;;;1.67;1.40;;;;;;;12.57;71.33;101880.41;6104929;23;20009;-76
2022/05/18 04:44:34;;;;;;;1.20;1.10;;;;;;;12.59;70.73;101886.50;6129322;23;20005;-76
2022/05/18 04:47:00;;;;;;;2.55;1.23;;;;;;;12.61;71.43;101884.75;6129564;23;20016;-77
2022/05/18 04:49:26;;;;;;;2.35;1.10;;;;;;;12.62;70.19;101886.47;6129334;23;20502;-77
2022/05/18 04:51:52;;;;;;;3.13;1.35;;;;;;;12.66;71.84;101888.19;6105196;23;20005;-76
2022/05/18 04:54:17;;;;;;;1.85;1.50;;;;;;;12.70;71.64;101886.44;6104786;23;20060;-76
2022/05/18 04:56:42;;;;;;;3.65;1.27;;;;;;;12.73;71.25;101894.28;6104673;23;20006;-77
2022/05/18 04:59:08;;;;;;;1.75;1.27;;;;;;;12.77;71.61;101897.75;6104113;23;20015;-77
2022/05/18 05:01:34;;;;;;;1.45;1.30;;;;;;;12.81;71.96;101907.34;6129213;23;20021;-77
2022/05/18 05:04:00;;;;;;;1.20;1.15;;;;;;;12.87;71.21;101902.06;6104606;23;20013;-78
2022/05/18 05:06:26;;;;;;;2.00;1.30;;;;;;;12.93;72.24;101906.41;6128750;23;20009;-77
2022/05/18 05:08:52;;;;;;;1.50;1.20;;;;;;;12.98;70.31;101909.88;6103714;23;20489;-77
2022/05/18 05:11:18;;;;;;;2.47;1.30;;;;;;;13.03;71.20;101913.31;6104945;23;20009;-77
2022/05/18 05:13:43;;;;;;;2.38;2.17;;;;;;;13.07;70.98;101906.31;6104475;23;20006;-77
2022/05/18 05:16:10;;;;;;;1.70;1.60;;;;;;;13.08;70.39;101903.66;6129166;23;20341;-77
2022/05/18 05:18:36;;;;;;;1.38;1.27;;;;;;;13.13;70.81;101903.63;6104425;23;20009;-76
2022/05/18 05:21:01;;;;;;;1.30;1.20;;;;;;;13.19;71.99;101908.81;6104790;23;20001;-76
2022/05/18 05:23:28;;;;;;;2.35;1.30;;;;;;;13.25;72.20;101897.41;6104934;23;20001;-77
2022/05/18 05:25:54;;;;;;;4.22;1.48;;;;;;;13.30;70.93;101906.97;6104683;23;20005;-77
2022/05/18 05:28:20;;;;;;;1.52;1.42;;;;;;;13.33;71.32;101901.72;6128986;23;20010;-77
2022/05/18 05:30:46;;;;;;;1.70;1.38;;;;;;;13.34;71.92;101916.56;6104780;23;20080;-77
2022/05/18 05:33:12;;;;;;;1.90;1.80;;;;;;;13.34;71.69;101913.94;6104342;23;20028;-76
2022/05/18 05:35:41;;;;;;;1.73;1.63;;;;;;;13.35;71.35;101909.59;6104947;23;20369;-77
2022/05/18 05:38:08;;;;;;;2.55;1.70;;;;;;;13.37;70.98;101912.22;6107151;23;20013;-76
2022/05/18 05:40:34;;;;;;;1.75;1.65;;;;;;;13.31;71.25;101902.63;6104480;23;20009;-77
2022/05/18 05:42:59;;;;;;;1.95;1.85;;;;;;;13.34;72.77;101913.09;6104578;23;20037;-77
2022/05/18 05:45:24;;;;;;;3.30;1.88;;;;;;;13.33;72.11;101906.97;6104523;23;20013;-77
2022/05/18 05:47:50;;;;;;;3.40;1.85;;;;;;;13.37;72.64;101901.72;6128789;23;20005;-77
2022/05/18 05:50:15;;;;;;;1.80;1.70;;;;;;;13.40;73.22;101902.56;6128919;23;20023;-76
2022/05/18 05:52:41;;;;;;;1.90;1.80;;;;;;;13.41;72.39;101908.69;6104654;23;20453;-77
2022/05/18 05:55:07;;;;;;;3.80;1.80;;;;;;;13.40;73.66;101912.19;6105357;23;20005;-77
2022/05/18 05:57:32;;;;;;;2.42;2.28;;;;;;;13.41;72.60;101911.31;6130425;23;20006;-77
2022/05/18 05:59:59;;;;;;;3.42;2.00;;;;;;;13.44;73.85;101909.53;6104782;23;20033;-76
2022/05/18 06:02:25;;;;;;;2.17;2.00;;;;;;;13.47;72.87;101911.25;6105907;23;20016;-77
2022/05/18 06:04:50;;;;;;;2.40;1.95;;;;;;;13.49;73.41;101901.63;6132760;23;20453;-80
2022/05/18 06:07:16;;;;;;;2.05;1.85;;;;;;;13.52;74.37;101905.09;6107970;23;20001;-80
2022/05/18 06:09:41;;;;;;;3.08;2.00;;;;;;;13.54;73.76;101905.06;6108668;23;20085;-81
2022/05/18 06:12:07;;;;;;;3.05;1.90;;;;;;;13.53;73.08;101905.94;6133411;23;20084;-81
2022/05/18 06:14:33;;;;;;;1.77;1.67;;;;;;;13.56;73.62;101898.03;6108233;23;20036;-80
2022/05/18 06:16:58;;;;;;;2.05;1.85;;;;;;;13.58;73.09;101895.41;6106944;23;20080;-81
2022/05/18 06:19:24;;;;;;;2.13;2.03;;;;;;;13.62;74.88;101905.88;6107812;23;20106;-81
2022/05/18 06:21:50;;;;;;;1.85;1.75;;;;;;;13.63;73.92;101907.63;6106795;23;20013;-80
2022/05/18 06:24:16;;;;;;;2.50;1.83;;;;;;;13.72;74.28;101908.41;6107979;23;20007;-81
2022/05/18 06:26:43;;;;;;;2.03;1.92;;;;;;;13.79;73.86;101899.59;6106636;23;20025;-80
2022/05/18 06:29:09;;;;;;;2.65;2.28;;;;;;;13.85;73.76;101902.13;6108536;23;20013;-80
2022/05/18 06:31:34;;;;;;;1.85;1.75;;;;;;;13.88;73.46;101899.50;6107344;23;20418;-80
2022/05/18 06:33:59;;;;;;;2.00;1.90;;;;;;;13.94;73.25;101903.78;6108105;23;20010;-80
2022/05/18 06:36:25;;;;;;;2.55;2.35;;;;;;;13.96;73.16;101897.66;6106908;23;20445;-80
2022/05/18 06:38:50;;;;;;;2.17;1.90;;;;;;;13.98;74.02;101895.84;6107615;23;20001;-80
2022/05/18 06:41:21;;;;;;;3.72;2.20;;;;;;;14.00;74.79;101893.22;6108614;23;20001;-82
2022/05/18 06:43:51;;;;;;;3.70;2.53;;;;;;;14.02;74.48;101900.19;6133481;23;20002;-80
2022/05/18 06:46:18;;;;;;;2.33;2.13;;;;;;;14.03;74.11;101899.31;6108424;23;20005;-81
2022/05/18 06:48:43;;;;;;;3.30;2.47;;;;;;;14.04;74.97;101892.28;6108115;23;20028;-80
2022/05/18 06:51:09;;;;;;;3.05;2.30;;;;;;;14.08;74.62;101891.34;6108004;23;20001;-80
2022/05/18 06:53:35;;;;;;;3.72;2.70;;;;;;;14.16;75.30;101888.66;6107411;23;20002;-81
2022/05/18 06:56:01;;;;;;;2.80;2.60;;;;;;;14.20;75.64;101880.69;6108000;23;20006;-80
2022/05/18 06:58:26;;;;;;;4.05;2.90;;;;;;;14.25;74.65;101888.53;6107956;23;20005;-81
2022/05/18 07:00:51;;;;;;;3.10;2.80;;;;;;;14.29;74.78;101889.34;6107150;23;20092;-81
2022/05/18 07:03:17;;;;;;;3.00;2.80;;;;;;;14.33;75.05;101898.97;6107980;23;20001;-81
2022/05/18 07:05:42;;;;;;;2.45;2.35;;;;;;;14.36;75.12;101886.63;6109178;23;20384;-80
2022/05/18 07:08:08;;;;;;;3.25;2.70;;;;;;;14.46;75.61;101887.38;6108812;23;20005;-80
2022/05/18 07:10:34;;;;;;;3.55;2.90;;;;;;;14.56;76.07;101887.25;6108696;23;20002;-80
2022/05/18 07:12:59;;;;;;;3.20;2.72;;;;;;;14.61;74.43;101890.69;6106893;23;20044;-80
2022/05/18 07:15:25;;;;;;;3.47;3.08;;;;;;;14.64;75.47;101896.84;6132583;23;20075;-80
2022/05/18 07:17:50;;;;;;;3.88;3.15;;;;;;;14.63;75.81;101891.56;6106580;23;20052;-80
2022/05/18 07:20:15;;;;;;;2.90;2.70;;;;;;;14.62;77.04;101890.69;6155302;23;20009;-80
2022/05/18 07:22:41;;;;;;;3.28;3.00;;;;;;;14.61;76.10;101888.94;6107314;23;19997;-80
2022/05/18 07:25:07;;;;;;;3.20;3.00;;;;;;;14.61;76.12;101886.28;6132372;23;19998;-82
2022/05/18 07:27:32;;;;;;;5.07;3.40;;;;;;;14.61;75.99;101883.66;6107451;23;19998;-81
2022/05/18 07:29:57;;;;;;;3.15;2.95;;;;;;;14.57;75.00;101891.63;6111763;23;20080;-81
2022/05/18 07:32:23;;;;;;;3.78;3.05;;;;;;;14.60;75.06;101895.09;6111861;23;19997;-81
2022/05/18 07:34:48;;;;;;;6.20;3.60;;;;;;;14.64;75.89;101894.19;6135320;23;20005;-81
2022/05/18 07:37:15;;;;;;;3.47;3.28;;;;;;;14.72;76.76;101893.22;6110605;23;20341;-81
2022/05/18 07:39:41;;;;;;;5.20;3.65;;;;;;;14.78;77.09;101898.38;6109930;23;20001;-81
2022/05/18 07:42:07;;;;;;;3.67;3.38;;;;;;;14.86;77.49;101901.75;6110037;23;20005;-81
2022/05/18 07:44:34;;;;;;;3.70;3.47;;;;;;;14.89;77.98;101899.09;6111132;23;20092;-82
2022/05/18 07:47:02;;;;;;;3.78;3.50;;;;;;;14.94;78.66;101905.13;6110959;23;20006;-81
2022/05/18 07:49:28;;;;;;;3.70;3.40;;;;;;;14.97;77.54;101897.22;6111176;23;20009;-81
2022/05/18 07:51:53;;;;;;;4.53;4.10;;;;;;;15.03;76.51;101898.88;6110019;23;20005;-81
2022/05/18 07:54:19;;;;;;;5.05;4.65;;;;;;;15.03;76.66;101894.47;6134212;23;20089;-81
2022/05/18 07:56:44;;;;;;;4.70;4.15;;;;;;;15.08;78.22;101896.16;6109700;23;20001;-81
2022/05/18 07:59:11;;;;;;;6.15;4.45;;;;;;;15.12;78.25;101895.22;6109541;23;20028;-81
2022/05/18 08:01:36;;;;;;;5.28;4.80;;;;;;;15.12;78.54;101882.94;6109610;23;20327;-81
2022/05/18 08:04:03;;;;;;;5.05;4.75;;;;;;;15.18;79.17;101888.09;6108407;23;20013;-82
2022/05/18 08:06:28;;;;;;;5.40;5.10;;;;;;;15.26;78.58;101887.97;6110071;23;20480;-82
2022/05/18 08:08:55;;;;;;;6.03;5.53;;;;;;;15.35;78.70;101890.47;6107853;23;20010;-81
2022/05/18 08:16:50;;;;;;;6.22;5.82;;;;;;;15.65;78.42;101877.66;6137373;23;20341;-81
2022/05/18 08:19:16;;;;;;;7.00;6.35;;;;;;;15.72;78.92;101876.63;6110228;23;20005;-81
2022/05/18 08:21:42;;;;;;;7.50;6.78;;;;;;;15.85;77.11;101879.91;6109336;23;20059;-81
2022/05/18 08:24:08;;;;;;;6.75;6.10;;;;;;;15.92;77.07;101878.03;6110409;23;20001;-79
2022/05/18 08:26:34;;;;;;;7.43;6.93;;;;;;;16.03;75.95;101881.34;6109412;23;20005;-80
2022/05/18 08:29:01;;;;;;;7.57;7.07;;;;;;;16.07;75.59;101870.72;6107444;23;20013;-79
2022/05/18 08:31:26;;;;;;;8.25;6.20;;;;;;;16.07;77.65;101870.72;6156136;23;20006;-79
2022/05/18 08:33:53;;;;;;;7.07;6.47;;;;;;;16.08;77.87;101869.84;6106556;23;20084;-79
2022/05/18 08:36:19;;;;;;;7.07;6.53;;;;;;;16.09;77.70;101872.44;6107543;23;20382;-81
2022/05/18 08:38:45;;;;;;;7.20;6.30;;;;;;;16.12;78.43;101860.97;6133635;23;20021;-81
2022/05/18 08:41:12;;;;;;;7.10;6.50;;;;;;;16.16;78.30;101868.75;6108395;23;20009;-81
2022/05/18 08:43:40;;;;;;;7.55;6.95;;;;;;;16.24;79.60;101858.06;6133982;23;20075;-82
2022/05/18 08:46:26;;;;;;;7.40;6.80;;;;;;;16.31;79.18;101867.56;6109884;23;20002;-81
2022/05/18 08:49:03;;;;;;;7.32;6.82;;;;;;;16.41;76.83;101862.09;6133411;23;20008;-81
2022/05/18 08:51:55;;;;;;;6.78;6.32;;;;;;;16.45;78.25;101858.50;6133425;23;20015;-81
2022/05/18 08:54:50;;;;;;;7.25;6.60;;;;;;;16.50;79.75;101861.91;6127653;23;20036;-81
2022/05/18 08:57:21;;;;;;;9.38;7.20;;;;;;;16.55;78.96;101865.28;6132605;23;20009;-81
2022/05/18 08:59:51;;;;;;;7.15;6.75;;;;;;;16.63;77.91;101857.19;6109545;23;20002;-82
2022/05/18 09:02:19;;;;;;;7.10;6.70;;;;;;;16.66;78.52;101858.00;6134464;23;20012;-82
2022/05/18 09:05:22;;;;;;;7.68;7.00;;;;;;;16.80;78.32;101862.09;6108812;23;20373;-82
2022/05/18 09:07:57;;;;;;;8.07;7.53;;;;;;;16.87;77.44;101851.34;6133158;23;20001;-82
2022/05/18 09:10:44;;;;;;;7.75;7.22;;;;;;;16.95;76.83;101856.47;6158346;23;20243;-81
2022/05/18 09:13:10;;;;;;;7.03;6.53;;;;;;;16.99;77.14;101857.28;6108739;23;20008;-82
2022/05/18 09:15:38;;;;;;;8.25;7.85;;;;;;;17.00;78.29;101851.06;6108810;23;19998;-82
2022/05/18 09:18:22;;;;;;;6.97;6.35;;;;;;;16.99;78.02;101850.22;6108785;23;20028;-81
2022/05/18 09:20:52;;;;;;;7.80;6.82;;;;;;;17.05;78.74;101855.31;6109345;23;20002;-82
2022/05/18 09:23:37;;;;;;;8.10;7.43;;;;;;;17.14;76.93;101846.31;6134679;23;20001;-82
2022/05/18 09:26:26;;;;;;;7.90;7.30;;;;;;;17.18;76.57;101836.56;6135294;23;20088;-82
2022/05/18 09:29:30;;;;;;;8.60;7.93;;;;;;;17.33;78.72;101830.88;6110722;23;20028;-80
2022/05/18 09:32:35;;;;;;;7.70;7.10;;;;;;;17.40;79.07;101834.22;6039063;23;20009;-82
2022/05/18 09:35:13;;;;;;;7.90;7.20;;;;;;;17.48;79.14;101834.88;6133806;23;20012;-82
2022/05/18 09:37:59;;;;;;;8.15;7.32;;;;;;;17.60;78.24;101830.16;6110070;23;20016;-82
2022/05/18 09:40:28;;;;;;;8.10;7.57;;;;;;;17.69;78.66;101828.13;6110251;23;20020;-82
2022/05/18 09:42:54;;;;;;;8.85;6.75;;;;;;;17.72;77.37;101827.16;6133574;23;20397;-83
2022/05/18 09:45:23;;;;;;;8.13;7.60;;;;;;;17.74;77.58;101826.22;6159936;23;20017;-83
2022/05/18 09:47:57;;;;;;;9.65;8.02;;;;;;;17.80;77.08;101821.69;6107930;23;20032;-82
2022/05/18 09:50:23;;;;;;;;;;;;;;;17.87;79.21;101824.13;6109676;23;20080;-83
2022/05/18 09:52:50;;;;;;;7.63;7.05;;;;;;;17.93;78.54;101828.38;6109085;23;19911;-83
2022/05/18 09:55:20;;;;;;;8.65;7.97;;;;;;;18.03;78.45;101818.41;6108865;23;20012;-82
2022/05/18 09:57:59;;;;;;;8.95;8.35;;;;;;;18.10;78.34;101824.38;6109948;23;20005;-82
2022/05/18 10:00:27;;;;;;;10.75;8.40;;;;;;;18.22;78.07;101813.41;6110473;23;20007;-80
2022/05/18 10:08:48;;;;;;;8.77;7.93;;;;;;;18.52;77.15;101805.44;6023901;23;20435;-82
2022/05/18 10:11:17;;;;;;;8.30;7.55;;;;;;;18.72;76.29;101807.47;6017890;23;20007;-80
2022/05/18 10:14:01;;;;;;;8.43;7.82;;;;;;;18.75;76.04;101808.19;6066063;23;20017;-81
2022/05/18 10:16:41;;;;;;;8.43;7.75;;;;;;;18.84;76.12;101807.06;6135373;23;20077;-82
2022/05/18 10:19:29;;;;;;;8.80;8.10;;;;;;;18.99;74.75;101799.53;6133259;23;20092;-82
2022/05/18 10:22:00;;;;;;;7.93;7.35;;;;;;;18.94;74.58;101802.34;6109404;23;20029;-83
2022/05/18 10:24:34;;;;;;;8.63;7.82;;;;;;;18.92;75.16;101797.09;6110178;23;20040;-82
2022/05/18 10:27:09;;;;;;;8.65;8.13;;;;;;;19.06;75.83;101796.63;6133029;23;20013;-82
2022/05/18 10:29:35;;;;;;;8.73;8.10;;;;;;;19.26;74.39;101787.09;6131871;23;20003;-83
2022/05/18 10:32:18;;;;;;;8.35;7.75;;;;;;;19.41;73.86;101788.34;6108003;23;20076;-81
2022/05/18 10:34:47;;;;;;;8.55;7.72;;;;;;;19.49;74.14;101785.44;6141708;23;20017;-78
2022/05/18 10:37:22;;;;;;;9.02;8.30;;;;;;;19.53;73.45;101784.41;6134979;23;20372;-78
2022/05/18 10:39:48;;;;;;;8.23;7.63;;;;;;;19.59;72.26;101782.38;6135962;23;20005;-78
2022/05/18 10:42:25;;;;;;;8.60;7.93;;;;;;;19.61;75.62;101787.63;6159701;23;20434;-78
2022/05/18 10:44:53;;;;;;;7.80;7.30;;;;;;;19.61;73.98;101787.63;6112830;23;20009;-79
2022/05/18 10:47:27;;;;;;;9.07;8.27;;;;;;;19.68;74.96;101783.81;6108112;23;20028;-78
2022/05/18 10:50:13;;;;;;;;;;;;;;;19.90;71.82;101780.41;6132882;23;20016;-78
2022/05/18 10:52:38;;;;;;;7.90;7.50;;;;;;;19.86;74.08;101779.63;6116697;23;19904;-78
2022/05/18 10:55:14;;;;;;;8.02;7.43;;;;;;;20.00;72.18;101779.13;6131684;23;20012;-78
2022/05/18 10:57:41;;;;;;;8.23;7.72;;;;;;;20.07;72.84;101775.31;6132885;23;20438;-79
2022/05/18 11:00:11;;;;;;;8.18;7.35;;;;;;;20.13;71.95;101776.00;6107808;23;20001;-78
2022/05/18 11:02:58;;;;;;;6.85;6.40;;;;;;;20.29;69.45;101779.78;6108214;23;20005;-78
2022/05/18 11:05:31;;;;;;;7.30;6.65;;;;;;;20.44;69.91;101773.84;6158957;23;20440;-79
2022/05/18 11:07:56;;;;;;;6.97;6.45;;;;;;;20.54;69.66;101758.38;6132798;23;20005;-78
2022/05/18 11:10:24;;;;;;;7.05;6.45;;;;;;;20.85;65.64;101756.28;6132185;23;20048;-78
2022/05/18 11:13:10;;;;;;;6.93;6.43;;;;;;;20.97;66.33;101755.75;6107314;23;20001;-78
2022/05/18 11:16:10;;;;;;;7.30;6.70;;;;;;;21.08;66.98;101748.19;6107805;23;20005;-78
2022/05/18 11:18:45;;;;;;;6.18;5.65;;;;;;;21.05;68.66;101753.63;6100706;23;20040;-79
2022/05/18 11:21:10;;;;;;;6.05;5.68;;;;;;;21.11;68.06;101753.34;6108146;23;20044;-79
2022/05/18 11:23:41;;;;;;;5.90;5.50;;;;;;;21.20;65.79;101741.47;6130815;23;20017;-78
2022/05/18 11:26:13;;;;;;;5.95;5.55;;;;;;;21.37;65.22;101737.19;6131535;23;20005;-79
2022/05/18 11:28:59;;;;;;;6.88;6.22;;;;;;;21.43;65.23;101726.28;6131490;23;20001;-79
2022/05/18 11:31:28;;;;;;;5.82;5.53;;;;;;;21.51;63.79;101720.63;6131420;23;20002;-78
2022/05/18 11:33:53;;;;;;;5.70;5.40;;;;;;;21.48;67.09;101726.06;6131848;23;20357;-80
2022/05/18 11:36:25;;;;;;;6.32;5.82;;;;;;;21.70;64.75;101720.66;6132032;23;20005;-79
2022/05/18 11:39:21;;;;;;;6.45;5.82;;;;;;;21.76;64.67;101723.00;6131535;23;20009;-79
2022/05/18 11:41:56;;;;;;;5.10;4.78;;;;;;;21.91;64.47;101706.34;6107851;23;20009;-79
2022/05/18 11:44:36;;;;;;;5.50;5.10;;;;;;;21.91;63.58;101716.97;6131515;23;20006;-79
2022/05/18 11:47:19;;;;;;;5.50;5.20;;;;;;;22.06;64.13;101709.19;6131037;23;20109;-79
2022/05/18 11:50:07;;;;;;;5.40;5.10;;;;;;;22.18;62.70;101710.38;6132169;23;20016;-79
2022/05/18 11:52:47;;;;;;;5.00;4.80;;;;;;;22.31;60.50;101714.16;6131337;23;20033;-78